Time;durP1;ratioP1;P1;durP2;ratioP2;P2;SDS_P1;SDS_P2;PMS_P1;PMS_P2;Temp;Humidity;BMP_temperature;BMP_pressure;BME280_temperature;BME280_humidity;BME280_pressure;Samples;Min_cycle;Max_cycle;Signal;HPM_P1;HPM_P2
2022/08/06 00:00:00;;;;;;;;;;;;;;;19.02;54.41;99542.56;2618348;54;20469;-67
2022/08/06 00:02:41;;;;;;;;;;;;;;;18.96;54.72;99552.34;2619616;54;20026;-67
2022/08/06 00:05:13;;;;;;;;;;;;;;;19.00;54.48;99545.47;2619264;54;19945;-65
2022/08/06 00:07:51;;;;;;;;;;;;;;;19.00;54.74;99558.06;2618637;54;20328;-66
2022/08/06 00:10:21;;;;;;;;;;;;;;;18.90;54.59;99563.16;2619438;54;19939;-67
2022/08/06 00:12:58;;;;;;;;;;;;;;;18.90;54.55;99565.81;2619493;54;19953;-67
2022/08/06 00:15:30;;;;;;;;;;;;;;;18.82;54.08;99569.66;2619644;54;20469;-67
2022/08/06 00:18:20;;;;;;;;;;;;;;;18.65;54.31;99565.94;2619710;39;20401;-68
2022/08/06 00:20:54;;;;;;;;;;;;;;;18.64;54.81;99575.03;2619146;54;19948;-66
2022/08/06 00:23:24;;;;;;;;;;;;;;;18.66;54.68;99578.31;2619006;54;19947;-69
2022/08/06 00:25:54;;;;;;;;;;;;;;;18.70;54.46;99577.66;2619263;54;19938;-67
2022/08/06 00:28:24;;;;;;;;;;;;;;;18.66;54.27;99581.00;2618564;54;19939;-66
2022/08/06 00:31:00;;;;;;;;;;;;;;;18.64;54.70;99581.19;2618802;54;19938;-65
2022/08/06 00:33:41;;;;;;;;;;;;;;;18.58;54.43;99576.75;2618820;54;19954;-66
2022/08/06 00:36:22;;;;;;;;;;;;;;;18.52;54.83;99583.00;2619282;39;20334;-66
2022/08/06 00:38:53;;;;;;;;;;;;;;;18.53;55.04;99584.63;2618685;54;20001;-67
2022/08/06 00:41:23;;;;;;;;;;;;;;;18.47;55.18;99574.84;2618820;54;20477;-66
2022/08/06 00:44:03;;;;;;;;;;;;;;;18.44;55.29;99585.97;2617952;54;19946;-70
2022/08/06 00:46:35;;;;;;;;;;;;;;;18.46;56.04;99584.72;2618688;54;19947;-67
2022/08/06 00:49:07;;;;;;;;;;;;;;;18.52;56.03;99591.03;2618886;54;19947;-67
2022/08/06 00:51:42;;;;;;;;;;;;;;;18.40;56.67;99590.97;2619899;54;19998;-67
2022/08/06 00:54:20;;;;;;;;;;;;;;;18.27;56.69;99597.28;2619426;54;19964;-67
2022/08/06 00:57:03;;;;;;;;;;;;;;;18.24;56.95;99587.03;2618853;54;19969;-67
2022/08/06 00:59:38;;;;;;;;;;;;;;;18.29;56.79;99589.88;2619040;39;20326;-67
2022/08/06 01:02:08;;;;;;;;;;;;;;;18.23;57.06;99593.44;2618526;54;19946;-68
2022/08/06 01:04:39;;;;;;;;;;;;;;;18.26;57.45;99601.00;2618744;54;19951;-66
2022/08/06 01:07:11;;;;;;;;;;;;;;;18.27;57.10;99596.47;2618189;54;20485;-66
2022/08/06 01:09:40;;;;;;;;;;;;;;;18.07;56.89;99605.53;2618475;54;19947;-67
2022/08/06 01:12:26;;;;;;;;;;;;;;;17.88;57.95;99601.22;2619002;54;19946;-67
2022/08/06 01:15:04;;;;;;;;;;;;;;;17.91;57.58;99598.09;2620274;54;20411;-68
2022/08/06 01:17:47;;;;;;;;;;;;;;;17.83;57.19;99601.84;2619731;54;19939;-66
2022/08/06 01:20:32;;;;;;;;;;;;;;;17.68;58.04;99603.22;2619209;54;20002;-68
2022/08/06 01:23:37;;;;;;;;;;;;;;;17.60;58.46;99601.66;2618973;46;20049;-67
2022/08/06 01:26:22;;;;;;;;;;;;;;;17.57;58.66;99602.88;2619338;54;19947;-69
2022/08/06 01:28:58;;;;;;;;;;;;;;;17.55;58.68;99604.97;2619855;54;19951;-68
2022/08/06 01:31:31;;;;;;;;;;;;;;;17.52;59.12;99609.94;2619825;31;20398;-68
2022/08/06 01:34:10;;;;;;;;;;;;;;;17.60;59.18;99601.66;2619441;54;19946;-68
2022/08/06 01:36:43;;;;;;;;;;;;;;;17.60;59.17;99601.66;2619134;54;19953;-68
2022/08/06 01:39:18;;;;;;;;;;;;;;;17.49;59.61;99605.03;2619501;54;19954;-68
2022/08/06 01:42:09;;;;;;;;;;;;;;;17.29;59.61;99611.31;2619448;54;19962;-67
2022/08/06 01:44:43;;;;;;;;;;;;;;;17.44;59.76;99607.53;2619316;54;20030;-68
2022/08/06 01:47:18;;;;;;;;;;;;;;;17.52;59.76;99608.06;2618961;54;20343;-68
2022/08/06 01:49:50;;;;;;;;;;;;;;;17.43;59.57;99614.72;2618602;47;19950;-68
2022/08/06 01:52:32;;;;;;;;;;;;;;;17.34;59.93;99621.34;2619076;54;19947;-68
2022/08/06 01:55:03;;;;;;;;;;;;;;;17.26;60.30;99614.41;2619190;54;19946;-67
2022/08/06 01:57:47;;;;;;;;;;;;;;;17.27;60.62;99617.94;2619241;54;19954;-68
2022/08/06 02:00:42;;;;;;;;;;;;;;;17.38;60.52;99614.53;2619689;54;20426;-67
2022/08/06 02:03:17;;;;;;;;;;;;;;;17.43;60.21;99616.56;2619173;54;19977;-67
2022/08/06 02:05:50;;;;;;;;;;;;;;;17.39;60.21;99615.34;2619262;54;19953;-68
2022/08/06 02:08:23;;;;;;;;;;;;;;;17.32;60.04;99620.78;2618389;54;19953;-67
2022/08/06 02:11:05;;;;;;;;;;;;;;;17.21;60.73;99616.94;2619067;54;19946;-67
2022/08/06 02:13:56;;;;;;;;;;;;;;;17.10;60.85;99617.59;2619205;54;20022;-67
2022/08/06 02:16:29;;;;;;;;;;;;;;;17.11;61.84;99619.28;2618838;54;20400;-68
2022/08/06 02:19:01;;;;;;;;;;;;;;;17.15;61.22;99623.16;2618583;47;20334;-68
2022/08/06 02:21:38;;;;;;;;;;;;;;;17.20;61.43;99626.00;2618642;54;19954;-68
2022/08/06 02:24:09;;;;;;;;;;;;;;;17.19;61.16;99634.22;2618752;54;19954;-67
2022/08/06 02:26:39;;;;;;;;;;;;;;;17.12;61.03;99638.78;2618804;54;19947;-67
2022/08/06 02:29:16;;;;;;;;;;;;;;;16.97;61.59;99631.03;2618871;54;19947;-68
2022/08/06 02:31:51;;;;;;;;;;;;;;;16.92;61.81;99631.69;2619027;54;20439;-66
2022/08/06 02:34:21;;;;;;;;;;;;;;;16.92;62.11;99634.38;2619534;39;20390;-67
2022/08/06 02:37:01;;;;;;;;;;;;;;;17.03;61.83;99646.22;2619055;54;20427;-68
2022/08/06 02:39:34;;;;;;;;;;;;;;;17.09;61.65;99646.19;2619129;54;19951;-66
2022/08/06 02:42:22;;;;;;;;;;;;;;;17.06;61.23;99649.31;2619502;54;20422;-67
2022/08/06 02:44:57;;;;;;;;;;;;;;;17.04;61.26;99653.22;2618874;54;19950;-67
2022/08/06 02:47:33;;;;;;;;;;;;;;;16.95;61.50;99651.81;2619296;54;19973;-67
2022/08/06 02:50:24;;;;;;;;;;;;;;;16.88;61.08;99651.03;2619364;54;19970;-67
2022/08/06 02:52:58;;;;;;;;;;;;;;;16.80;61.54;99647.56;2619215;54;19938;-67
2022/08/06 02:55:33;;;;;;;;;;;;;;;16.81;61.55;99651.88;2619085;54;20049;-67
2022/08/06 02:58:06;;;;;;;;;;;;;;;16.81;61.85;99654.53;2618357;47;19946;-67
2022/08/06 03:00:42;;;;;;;;;;;;;;;16.76;61.47;99658.88;2618828;46;19988;-67
2022/08/06 03:03:26;;;;;;;;;;;;;;;16.62;61.76;99662.63;2619274;54;19982;-67
2022/08/06 03:06:04;;;;;;;;;;;;;;;16.63;62.13;99664.25;2618708;54;19970;-67
2022/08/06 03:08:36;;;;;;;;;;;;;;;16.45;62.84;99665.75;2618443;54;20438;-68
2022/08/06 03:11:07;;;;;;;;;;;;;;;16.37;62.57;99659.78;2618421;47;20591;-68
2022/08/06 03:13:37;;;;;;;;;;;;;;;16.28;62.79;99665.34;2619047;54;19938;-66
2022/08/06 03:16:08;;;;;;;;;;;;;;;16.22;63.67;99666.19;2618697;54;19945;-67
2022/08/06 03:18:56;;;;;;;;;;;;;;;16.22;63.59;99665.38;2619887;31;20451;-66
2022/08/06 03:21:46;;;;;;;;;;;;;;;16.28;63.48;99665.34;2619123;54;19947;-67
2022/08/06 03:24:26;;;;;;;;;;;;;;;16.28;63.24;99670.69;2619136;54;19939;-67
2022/08/06 03:26:58;;;;;;;;;;;;;;;16.29;63.38;99663.53;2619047;54;19955;-66
2022/08/06 03:29:29;;;;;;;;;;;;;;;16.25;63.64;99665.78;2619242;39;20213;-66
2022/08/06 03:31:59;;;;;;;;;;;;;;;16.24;63.44;99666.78;2619155;54;19994;-68
2022/08/06 03:34:52;;;;;;;;;;;;;;;16.25;63.46;99664.97;2619515;54;19977;-67
2022/08/06 03:37:23;;;;;;;;;;;;;;;16.19;63.76;99666.59;2619151;54;19939;-68
2022/08/06 03:40:13;;;;;;;;;;;;;;;16.09;63.45;99664.38;2619604;54;19973;-68
2022/08/06 03:42:47;;;;;;;;;;;;;;;16.16;63.78;99664.34;2619106;54;19947;-67
2022/08/06 03:45:21;;;;;;;;;;;;;;;16.10;63.70;99668.69;2619520;54;20449;-68
2022/08/06 03:48:15;;;;;;;;;;;;;;;16.08;63.49;99678.75;2619237;50;19951;-67
2022/08/06 03:51:08;;;;;;;;;;;;;;;16.08;63.42;99673.41;2619804;54;19981;-68
2022/08/06 03:53:39;;;;;;;;;;;;;;;16.01;63.56;99674.44;2619264;54;20010;-68
2022/08/06 03:56:18;;;;;;;;;;;;;;;16.03;63.62;99672.38;2619613;54;19969;-68
2022/08/06 03:58:58;;;;;;;;;;;;;;;16.10;63.81;99673.19;2619757;54;19938;-68
2022/08/06 04:01:30;;;;;;;;;;;;;;;16.02;63.71;99676.88;2599813;54;20987;-68
2022/08/06 04:04:02;;;;;;;;;;;;;;;16.10;63.81;99676.69;2617447;54;19953;-67
2022/08/06 04:06:55;;;;;;;;;;;;;;;16.16;63.34;99672.34;2617769;54;19962;-67
2022/08/06 04:09:26;;;;;;;;;;;;;;;16.17;62.73;99678.53;2618366;39;20341;-68
2022/08/06 04:12:15;;;;;;;;;;;;;;;16.09;62.75;99687.56;2617475;54;20438;-67
2022/08/06 04:15:06;;;;;;;;;;;;;;;16.10;62.86;99695.34;2618460;54;19938;-66
2022/08/06 04:17:38;;;;;;;;;;;;;;;16.15;62.89;99689.38;2617840;54;19939;-68
2022/08/06 04:20:11;;;;;;;;;;;;;;;15.98;62.22;99697.00;2618202;54;19939;-68
2022/08/06 04:22:43;;;;;;;;;;;;;;;15.97;63.07;99695.38;2618330;39;20353;-67
2022/08/06 04:25:36;;;;;;;;;;;;;;;16.01;62.74;99696.59;2618491;39;20465;-68
2022/08/06 04:28:12;;;;;;;;;;;;;;;16.05;62.39;99697.00;2617799;54;20010;-68
2022/08/06 04:30:44;;;;;;;;;;;;;;;15.90;62.20;99701.72;2618388;39;20240;-68
2022/08/06 04:33:22;;;;;;;;;;;;;;;15.90;62.47;99701.72;2617809;54;19947;-68
2022/08/06 04:36:05;;;;;;;;;;;;;;;15.96;62.23;99703.56;2617920;54;19959;-68
2022/08/06 04:38:49;;;;;;;;;;;;;;;15.94;62.31;99703.78;2617911;54;20034;-68
2022/08/06 04:41:20;;;;;;;;;;;;;;;16.00;62.60;99702.97;2617728;54;19939;-68
2022/08/06 04:43:50;;;;;;;;;;;;;;;15.97;62.56;99707.88;2617117;54;20034;-68
2022/08/06 04:46:23;;;;;;;;;;;;;;;15.96;62.64;99709.72;2617574;54;19945;-68
2022/08/06 04:48:55;;;;;;;;;;;;;;;16.05;62.58;99711.16;2617777;54;19965;-68
2022/08/06 04:51:29;;;;;;;;;;;;;;;16.16;62.36;99711.53;2617109;47;19943;-69
2022/08/06 04:54:21;;;;;;;;;;;;;;;16.30;62.13;99711.34;2617869;54;19951;-69
2022/08/06 04:56:58;;;;;;;;;;;;;;;16.39;62.25;99711.13;2617761;54;20490;-68
2022/08/06 04:59:47;;;;;;;;;;;;;;;16.46;61.98;99714.59;2617993;54;20049;-68
2022/08/06 05:02:18;;;;;;;;;;;;;;;16.57;61.63;99714.78;2617782;54;19945;-69
2022/08/06 05:04:55;;;;;;;;;;;;;;;16.66;61.40;99717.22;2617217;51;19942;-68
2022/08/06 05:07:27;;;;;;;;;;;;;;;16.70;61.58;99721.13;2619621;54;19938;-68
2022/08/06 05:10:10;;;;;;;;;;;;;;;16.73;61.18;99723.38;2623697;54;19946;-68
2022/08/06 05:12:41;;;;;;;;;;;;;;;16.80;60.81;99725.00;2624151;54;19946;-68
2022/08/06 05:15:13;;;;;;;;;;;;;;;16.87;60.91;99733.00;2617885;54;20411;-68
2022/08/06 05:17:52;;;;;;;;;;;;;;;16.92;60.65;99741.19;2617556;54;19953;-69
2022/08/06 05:20:22;;;;;;;;;;;;;;;16.95;60.13;99742.63;2617901;54;19953;-68
2022/08/06 05:23:00;;;;;;;;;;;;;;;16.98;59.88;99748.38;2617835;54;19939;-68
2022/08/06 05:25:37;;;;;;;;;;;;;;;17.00;59.86;99743.63;2618716;54;19953;-68
2022/08/06 05:28:16;;;;;;;;;;;;;;;17.07;59.46;99744.44;2619719;54;19946;-69
2022/08/06 05:30:51;;;;;;;;;;;;;;;17.19;59.10;99749.94;2624269;47;19938;-68
2022/08/06 05:33:25;;;;;;;;;;;;;;;17.18;58.97;99753.59;2624733;54;19962;-68
2022/08/06 05:35:58;;;;;;;;;;;;;;;17.14;59.10;99752.41;2624865;54;19950;-68
2022/08/06 05:38:30;;;;;;;;;;;;;;;17.10;58.65;99748.50;2624631;54;19950;-68
2022/08/06 05:41:09;;;;;;;;;;;;;;;17.18;58.59;99753.59;2623726;54;20517;-69
2022/08/06 05:43:39;;;;;;;;;;;;;;;17.23;58.65;99753.81;2621561;54;19947;-67
2022/08/06 05:46:31;;;;;;;;;;;;;;;17.24;57.92;99755.44;2617626;54;19956;-67
2022/08/06 05:49:04;;;;;;;;;;;;;;;17.29;57.65;99758.28;2616893;54;19963;-68
2022/08/06 05:51:55;;;;;;;;;;;;;;;17.38;57.28;99753.53;2617629;54;19939;-68
2022/08/06 05:54:29;;;;;;;;;;;;;;;17.47;56.73;99759.44;2617041;54;19946;-67
2022/08/06 05:57:06;;;;;;;;;;;;;;;17.58;56.82;99759.56;2617394;54;19950;-69
2022/08/06 05:59:40;;;;;;;;;;;;;;;17.64;56.26;99760.59;2618249;54;19969;-68
2022/08/06 06:02:27;;;;;;;;;;;;;;;17.60;55.15;99750.53;2618303;54;19939;-69
2022/08/06 06:05:00;;;;;;;;;;;;;;;17.53;55.90;99754.06;2618262;54;19946;-69
2022/08/06 06:07:49;;;;;;;;;;;;;;;17.42;54.36;99759.25;2617354;54;19947;-67
2022/08/06 06:10:40;;;;;;;;;;;;;;;17.23;55.75;99761.84;2617555;47;19985;-68
2022/08/06 06:13:25;;;;;;;;;;;;;;;17.51;55.35;99757.97;2617571;47;19946;-67
2022/08/06 06:16:11;;;;;;;;;;;;;;;17.68;55.16;99760.97;2618089;54;20001;-69
2022/08/06 06:18:56;;;;;;;;;;;;;;;17.89;54.48;99767.88;2619172;47;19977;-68
2022/08/06 06:21:38;;;;;;;;;;;;;;;17.99;53.62;99769.00;2623062;54;19946;-67
2022/08/06 06:24:21;;;;;;;;;;;;;;;18.00;53.97;99778.69;2622288;39;20345;-68
2022/08/06 06:26:54;;;;;;;;;;;;;;;18.11;53.48;99779.81;2623134;39;20338;-67
2022/08/06 06:29:33;;;;;;;;;;;;;;;18.07;52.36;99782.13;2622903;54;19953;-68
2022/08/06 06:32:28;;;;;;;;;;;;;;;17.94;52.80;99781.41;2623314;54;19939;-68
2022/08/06 06:35:02;;;;;;;;;;;;;;;17.93;52.71;99775.25;2620661;54;19943;-67
2022/08/06 06:37:39;;;;;;;;;;;;;;;17.92;52.55;99773.59;2619423;54;19961;-66
2022/08/06 06:40:15;;;;;;;;;;;;;;;18.06;52.74;99783.16;2619210;54;19942;-67
2022/08/06 06:42:49;;;;;;;;;;;;;;;17.99;52.29;99781.56;2623634;39;20342;-67
2022/08/06 06:45:24;;;;;;;;;;;;;;;18.00;52.01;99777.84;2623631;54;19943;-67
2022/08/06 06:48:16;;;;;;;;;;;;;;;17.90;51.71;99777.53;2622516;54;19938;-67
2022/08/06 06:50:48;;;;;;;;;;;;;;;18.00;52.72;99780.53;2623197;47;19947;-68
2022/08/06 06:53:18;;;;;;;;;;;;;;;18.15;51.96;99780.22;2626078;39;20355;-66
2022/08/06 06:55:55;;;;;;;;;;;;;;;18.30;52.30;99778.03;2620204;54;19938;-67
2022/08/06 06:58:45;;;;;;;;;;;;;;;18.51;51.92;99784.84;2618570;54;19951;-67
2022/08/06 07:01:20;;;;;;;;;;;;;;;18.64;51.05;99784.72;2619805;31;20453;-67
2022/08/06 07:03:58;;;;;;;;;;;;;;;18.65;51.12;99780.19;2618849;54;19981;-67
2022/08/06 07:06:30;;;;;;;;;;;;;;;18.70;50.44;99783.06;2617590;47;19958;-67
2022/08/06 07:09:16;;;;;;;;;;;;;;;18.67;50.28;99783.47;2618027;54;19946;-67
2022/08/06 07:12:08;;;;;;;;;;;;;;;18.76;50.01;99785.66;2617918;47;19973;-68
2022/08/06 07:14:55;;;;;;;;;;;;;;;18.91;48.58;99789.84;2618363;54;19974;-68
2022/08/06 07:17:34;;;;;;;;;;;;;;;18.98;48.67;99779.84;2617979;39;20330;-67
2022/08/06 07:20:19;;;;;;;;;;;;;;;19.08;47.72;99787.38;2618281;54;20009;-67
2022/08/06 07:22:56;;;;;;;;;;;;;;;19.16;47.39;99787.91;2618488;54;19985;-66
2022/08/06 07:25:47;;;;;;;;;;;;;;;19.16;46.85;99789.75;2618672;54;20034;-67
2022/08/06 07:28:25;;;;;;;;;;;;;;;19.11;47.48;99787.75;2618643;54;19947;-67
2022/08/06 07:30:57;;;;;;;;;;;;;;;19.21;47.02;99784.53;2618450;54;19946;-68
2022/08/06 07:33:36;;;;;;;;;;;;;;;19.17;47.11;99791.38;2618408;54;19973;-66
2022/08/06 07:36:27;;;;;;;;;;;;;;;19.12;46.80;99791.25;2621518;54;19955;-68
2022/08/06 07:39:00;;;;;;;;;;;;;;;19.15;47.64;99790.81;2621214;54;19953;-67
2022/08/06 07:41:31;;;;;;;;;;;;;;;19.22;46.75;99796.88;2620393;54;20026;-67
2022/08/06 07:44:22;;;;;;;;;;;;;;;19.19;47.14;99786.63;2619415;54;19942;-68
2022/08/06 07:47:01;;;;;;;;;;;;;;;19.40;47.08;99790.72;2619501;54;19946;-67
2022/08/06 07:49:56;;;;;;;;;;;;;;;19.41;45.53;99793.16;2618201;47;20030;-67
2022/08/06 07:52:29;;;;;;;;;;;;;;;19.48;45.77;99790.41;2618685;54;19986;-66
2022/08/06 07:55:00;;;;;;;;;;;;;;;19.64;45.65;99791.66;2619381;31;20413;-68
2022/08/06 07:57:32;;;;;;;;;;;;;;;19.79;45.33;99789.34;2618296;54;19945;-67
2022/08/06 08:00:22;;;;;;;;;;;;;;;19.94;43.66;99786.25;2618412;54;20065;-68
2022/08/06 08:08:30;;;;;;;;;;;;;;;20.00;43.40;99790.69;2617996;39;20425;-66
2022/08/06 08:11:02;;;;;;;;;;;;;;;20.19;41.56;99791.44;2618403;54;19985;-67
2022/08/06 08:13:33;;;;;;;;;;;;;;;20.22;41.24;99797.16;2618799;54;20030;-67
2022/08/06 08:16:11;;;;;;;;;;;;;;;20.09;40.47;99785.84;2618269;54;19953;-68
2022/08/06 08:18:48;;;;;;;;;;;;;;;20.16;40.54;99798.06;2618227;54;19938;-68
2022/08/06 08:21:23;;;;;;;;;;;;;;;20.29;39.89;99792.50;2618310;54;20029;-68
2022/08/06 08:23:53;;;;;;;;;;;;;;;20.26;40.15;99794.84;2618569;39;20334;-68
2022/08/06 08:26:24;;;;;;;;;;;;;;;20.03;40.18;99798.28;2618735;54;20029;-68
2022/08/06 08:28:53;;;;;;;;;;;;;;;19.97;40.44;99788.50;2620137;54;19951;-68
2022/08/06 08:31:23;;;;;;;;;;;;;;;20.16;40.96;99786.53;2622898;54;19997;-68
2022/08/06 08:33:54;;;;;;;;;;;;;;;20.25;40.23;99782.47;2622157;54;19943;-69
2022/08/06 08:36:26;;;;;;;;;;;;;;;20.37;40.02;99786.00;2619407;54;19939;-68
2022/08/06 08:38:59;;;;;;;;;;;;;;;20.50;39.54;99780.41;2617898;54;19939;-68
2022/08/06 08:41:35;;;;;;;;;;;;;;;20.66;38.34;99784.25;2618467;54;20529;-69
2022/08/06 08:44:23;;;;;;;;;;;;;;;20.67;38.97;99787.75;2618187;54;20054;-68
2022/08/06 08:46:58;;;;;;;;;;;;;;;20.74;38.92;99797.34;2617432;54;19965;-67
2022/08/06 08:49:30;;;;;;;;;;;;;;;20.69;39.06;99786.47;2618263;54;19958;-67
2022/08/06 08:52:03;;;;;;;;;;;;;;;20.81;38.85;99780.25;2618057;39;20322;-69
2022/08/06 08:54:41;;;;;;;;;;;;;;;20.84;38.82;99785.19;2618078;54;19977;-67
2022/08/06 08:57:11;;;;;;;;;;;;;;;20.84;38.56;99786.00;2617427;54;19938;-68
2022/08/06 09:00:03;;;;;;;;;;;;;;;20.70;39.20;99784.63;2618345;54;19958;-69
2022/08/06 09:02:39;;;;;;;;;;;;;;;20.57;39.05;99774.91;2618255;54;19939;-69
2022/08/06 09:05:18;;;;;;;;;;;;;;;20.78;39.29;99782.38;2618552;39;20270;-67
2022/08/06 09:07:51;;;;;;;;;;;;;;;20.89;38.76;99783.41;2617858;54;19973;-67
2022/08/06 09:10:30;;;;;;;;;;;;;;;21.05;38.37;99778.34;2618181;54;19938;-68
2022/08/06 09:13:04;;;;;;;;;;;;;;;21.13;38.47;99775.31;2617343;54;19957;-68
2022/08/06 09:15:52;;;;;;;;;;;;;;;21.26;38.19;99770.44;2617336;47;19966;-67
2022/08/06 09:18:23;;;;;;;;;;;;;;;21.46;37.98;99782.69;2617851;54;19973;-67
2022/08/06 09:20:56;;;;;;;;;;;;;;;21.63;37.22;99790.81;2617855;54;19938;-67
2022/08/06 09:23:29;;;;;;;;;;;;;;;21.44;37.18;99785.66;2617997;54;19954;-69
2022/08/06 09:26:17;;;;;;;;;;;;;;;21.47;37.70;99793.25;2617198;54;20430;-67
2022/08/06 09:29:17;;;;;;;;;;;;;;;21.52;37.61;99781.75;2617373;47;19969;-67
2022/08/06 09:32:00;;;;;;;;;;;;;;;21.66;36.72;99788.47;2617215;47;19939;-67
2022/08/06 09:34:34;;;;;;;;;;;;;;;21.70;37.04;99786.94;2618475;54;19946;-67
2022/08/06 09:37:08;;;;;;;;;;;;;;;21.72;36.83;99781.31;2618928;54;19951;-67
2022/08/06 09:39:44;;;;;;;;;;;;;;;21.82;36.88;99786.88;2618040;47;20042;-67
2022/08/06 09:42:40;;;;;;;;;;;;;;;21.85;36.05;99781.00;2618916;54;19950;-67
2022/08/06 09:45:12;;;;;;;;;;;;;;;21.92;36.47;99770.91;2618091;54;19947;-67
2022/08/06 09:47:45;;;;;;;;;;;;;;;22.11;35.72;99784.13;2618642;46;19965;-66
2022/08/06 09:50:37;;;;;;;;;;;;;;;22.00;35.78;99772.38;2618586;54;19954;-67
2022/08/06 09:53:07;;;;;;;;;;;;;;;21.99;35.78;99770.75;2619472;54;19945;-68
2022/08/06 09:55:46;;;;;;;;;;;;;;;22.02;36.02;99763.00;2620105;54;20033;-67
2022/08/06 09:58:15;;;;;;;;;;;;;;;22.00;36.07;99772.38;2619962;39;20369;-68
2022/08/06 10:00:46;;;;;;;;;;;;;;;22.23;35.16;99774.13;2618486;47;20030;-68
2022/08/06 10:03:19;;;;;;;;;;;;;;;22.27;35.11;99767.19;2619377;54;19939;-68
2022/08/06 10:06:10;;;;;;;;;;;;;;;22.14;35.85;99771.03;2619065;54;19946;-67
2022/08/06 10:08:43;;;;;;;;;;;;;;;22.29;34.80;99770.47;2618675;54;19939;-68
2022/08/06 10:11:34;;;;;;;;;;;;;;;22.31;35.30;99762.13;2618473;54;19938;-68
2022/08/06 10:14:22;;;;;;;;;;;;;;;22.42;35.06;99772.81;2618707;54;19939;-68
2022/08/06 10:17:05;;;;;;;;;;;;;;;22.48;34.70;99779.09;2619915;54;19946;-67
2022/08/06 10:19:37;;;;;;;;;;;;;;;22.42;34.63;99769.31;2619566;54;19946;-67
2022/08/06 16:13:26;;;;;;;;;;;;;;;25.77;23.22;99531.44;2607990;46;20093;-69
2022/08/06 16:15:56;;;;;;;;;;;;;;;25.90;23.45;99532.75;2619339;47;20426;-68
2022/08/06 16:18:29;;;;;;;;;;;;;;;25.96;23.02;99525.41;2619578;39;20333;-67
2022/08/06 16:21:00;;;;;;;;;;;;;;;25.92;23.22;99528.69;2619517;54;19943;-67
2022/08/06 16:23:34;;;;;;;;;;;;;;;25.86;22.91;99531.66;2623028;54;19942;-68
2022/08/06 16:26:24;;;;;;;;;;;;;;;25.81;22.78;99523.56;2618494;47;19946;-67
2022/08/06 16:29:13;;;;;;;;;;;;;;;25.91;22.88;99531.66;2617980;54;19938;-66
2022/08/06 16:31:45;;;;;;;;;;;;;;;25.97;22.71;99533.28;2617200;54;19950;-69
2022/08/06 16:34:21;;;;;;;;;;;;;;;25.94;22.39;99536.53;2618431;54;19969;-68
2022/08/06 16:37:03;;;;;;;;;;;;;;;25.90;22.27;99535.44;2617629;54;19946;-67
2022/08/06 16:39:53;;;;;;;;;;;;;;;25.91;21.73;99534.34;2618012;54;20034;-67
2022/08/06 16:42:29;;;;;;;;;;;;;;;25.86;22.36;99526.25;2617046;47;19980;-66
2022/08/06 16:45:01;;;;;;;;;;;;;;;25.94;21.89;99536.53;2618377;54;19970;-67
2022/08/06 16:47:40;;;;;;;;;;;;;;;25.94;22.18;99529.19;2617581;54;19947;-68
2022/08/06 16:50:30;;;;;;;;;;;;;;;25.98;21.89;99526.75;2617199;47;20438;-67
2022/08/06 16:53:05;;;;;;;;;;;;;;;26.01;22.31;99514.56;2617265;54;20026;-68
2022/08/06 16:55:55;;;;;;;;;;;;;;;26.04;21.47;99527.53;2618062;54;19969;-68
2022/08/06 16:58:25;;;;;;;;;;;;;;;26.03;20.50;99521.31;2618027;54;19946;-67
2022/08/06 17:01:08;;;;;;;;;;;;;;;25.97;21.17;99525.13;2618341;39;20342;-68
2022/08/06 17:03:58;;;;;;;;;;;;;;;26.05;20.35;99521.06;2617178;47;19938;-67
2022/08/06 17:06:29;;;;;;;;;;;;;;;26.16;21.07;99515.28;2617955;54;19957;-66
2022/08/06 17:09:04;;;;;;;;;;;;;;;26.32;19.89;99516.03;2617854;54;20036;-67
2022/08/06 17:11:47;;;;;;;;;;;;;;;26.43;20.06;99524.94;2618745;31;20382;-67
2022/08/06 17:14:27;;;;;;;;;;;;;;;26.48;20.65;99511.38;2617065;47;19954;-67
2022/08/06 17:17:01;;;;;;;;;;;;;;;26.45;20.81;99511.91;2617053;54;19945;-67
2022/08/06 17:19:50;;;;;;;;;;;;;;;26.55;20.94;99500.22;2617628;54;19966;-67
2022/08/06 17:22:29;;;;;;;;;;;;;;;26.70;20.42;99510.97;2617421;47;19946;-67
2022/08/06 17:24:59;;;;;;;;;;;;;;;26.70;21.01;99502.84;2616969;54;19950;-68
2022/08/06 17:27:29;;;;;;;;;;;;;;;26.62;20.68;99503.44;2616944;54;19947;-67
2022/08/06 17:30:21;;;;;;;;;;;;;;;26.70;20.93;99507.44;2617620;54;19938;-67
2022/08/06 17:32:54;;;;;;;;;;;;;;;26.67;21.00;99511.53;2617022;54;19954;-68
2022/08/06 17:35:23;;;;;;;;;;;;;;;26.68;20.97;99511.25;2617714;54;19946;-66
2022/08/06 17:38:13;;;;;;;;;;;;;;;26.84;20.43;99500.28;2617715;54;19945;-67
2022/08/06 17:40:44;;;;;;;;;;;;;;;26.77;20.65;99502.50;2617626;54;20291;-67
2022/08/06 17:43:34;;;;;;;;;;;;;;;26.90;20.37;99507.28;2616973;54;20446;-67
2022/08/06 17:46:23;;;;;;;;;;;;;;;27.04;20.37;99508.28;2617332;54;19977;-66
2022/08/06 17:48:58;;;;;;;;;;;;;;;27.06;20.81;99506.06;2616943;49;19978;-66
2022/08/06 17:51:27;;;;;;;;;;;;;;;27.22;21.13;99505.97;2617924;54;19962;-66
2022/08/06 17:54:02;;;;;;;;;;;;;;;27.24;20.46;99499.19;2618222;54;19950;-67
2022/08/06 17:56:51;;;;;;;;;;;;;;;27.25;20.68;99514.38;2618191;54;19985;-66
2022/08/06 17:59:21;;;;;;;;;;;;;;;27.06;20.99;99507.97;2618225;54;19946;-68
2022/08/06 18:01:59;;;;;;;;;;;;;;;26.59;21.57;99504.00;2618342;54;19939;-68
2022/08/06 18:04:33;;;;;;;;;;;;;;;26.23;21.42;99509.59;2618142;39;20475;-68
2022/08/06 18:07:12;;;;;;;;;;;;;;;25.49;21.89;99513.03;2617521;47;19979;-67
2022/08/06 18:12:45;;;;;;;;;;;;;;;24.40;23.38;99526.72;2617769;47;20731;-69
2022/08/06 18:15:18;;;;;;;;;;;;;;;24.09;23.52;99532.00;2618418;54;20506;-68
2022/08/06 18:17:48;;;;;;;;;;;;;;;23.83;24.13;99533.75;2618497;39;20426;-69
2022/08/06 18:20:35;;;;;;;;;;;;;;;23.57;24.61;99538.16;2617856;54;19958;-67
2022/08/06 18:23:07;;;;;;;;;;;;;;;23.37;25.02;99530.72;2618426;54;19998;-68
2022/08/06 18:25:50;;;;;;;;;;;;;;;23.23;25.43;99535.75;2617725;46;19969;-67
2022/08/06 18:28:26;;;;;;;;;;;;;;;23.02;25.47;99541.22;2618259;54;19939;-70
2022/08/06 18:31:06;;;;;;;;;;;;;;;22.88;26.07;99535.41;2618821;39;20422;-67
2022/08/06 18:33:38;;;;;;;;;;;;;;;22.85;26.20;99541.31;2618455;54;20025;-67
2022/08/06 18:36:17;;;;;;;;;;;;;;;22.78;26.27;99538.84;2617708;47;20450;-67
2022/08/06 18:39:01;;;;;;;;;;;;;;;22.69;26.54;99540.34;2618284;54;20450;-67
2022/08/06 18:41:37;;;;;;;;;;;;;;;22.60;26.44;99547.25;2617686;47;19981;-69
2022/08/06 18:44:08;;;;;;;;;;;;;;;22.56;26.93;99543.44;2618301;54;19994;-69
2022/08/06 18:46:39;;;;;;;;;;;;;;;22.46;27.02;99546.84;2617834;39;20350;-68
2022/08/06 18:49:28;;;;;;;;;;;;;;;22.37;27.23;99551.88;2618567;39;20044;-68
2022/08/06 18:52:20;;;;;;;;;;;;;;;22.30;26.77;99545.03;2618229;54;20481;-67
2022/08/06 18:54:55;;;;;;;;;;;;;;;22.19;27.21;99549.47;2618160;54;19938;-66
2022/08/06 18:57:28;;;;;;;;;;;;;;;22.11;26.95;99545.31;2617254;54;19946;-68
2022/08/06 19:00:18;;;;;;;;;;;;;;;22.07;27.52;99548.75;2617571;54;19947;-67
2022/08/06 19:02:49;;;;;;;;;;;;;;;22.04;27.73;99544.66;2618515;54;20473;-67
2022/08/06 19:05:20;;;;;;;;;;;;;;;22.01;27.59;99559.47;2618213;54;19953;-68
2022/08/06 19:08:00;;;;;;;;;;;;;;;21.93;27.45;99565.28;2617495;54;19942;-67
2022/08/06 19:10:33;;;;;;;;;;;;;;;21.89;27.51;99560.63;2618633;54;19959;-68
2022/08/06 19:13:04;;;;;;;;;;;;;;;21.80;27.92;99564.78;2619327;54;19962;-68
2022/08/06 19:15:38;;;;;;;;;;;;;;;21.71;28.08;99564.41;2617566;54;19953;-67
2022/08/06 19:18:19;;;;;;;;;;;;;;;21.69;28.28;99566.53;2618415;54;19939;-69
2022/08/06 19:20:53;;;;;;;;;;;;;;;21.65;28.47;99568.09;2620574;54;19961;-68
2022/08/06 19:23:29;;;;;;;;;;;;;;;21.57;27.77;99566.63;2622161;54;19946;-67
2022/08/06 19:26:18;;;;;;;;;;;;;;;21.50;27.87;99576.72;2621442;39;20345;-68
2022/08/06 19:28:48;;;;;;;;;;;;;;;21.36;28.02;99573.56;2617663;54;19939;-67
2022/08/06 19:31:21;;;;;;;;;;;;;;;21.34;28.10;99578.34;2617602;54;19946;-67
2022/08/06 19:34:11;;;;;;;;;;;;;;;21.23;28.54;99574.66;2618560;54;19942;-68
2022/08/06 19:36:44;;;;;;;;;;;;;;;21.26;28.65;99576.03;2617592;54;19942;-68
2022/08/06 19:39:19;;;;;;;;;;;;;;;21.16;29.03;99578.56;2617487;54;19942;-67
2022/08/06 19:42:10;;;;;;;;;;;;;;;21.15;28.97;99588.50;2618416;54;19950;-68